createdAt,value
2018-09-20T00:04:56.692Z,11.08
2018-09-20T00:10:51.675Z,11.12
2018-09-20T00:16:46.638Z,11.23
2018-09-20T00:22:42.138Z,11.3
2018-09-20T00:28:36.734Z,11.57
2018-09-20T00:34:33.440Z,11.38
2018-09-20T00:40:29.955Z,11
2018-09-20T00:46:24.510Z,11.89
2018-09-20T00:52:16.691Z,12.43
2018-09-20T00:58:11.707Z,10.51
2018-09-20T01:04:10.844Z,12.63
2018-09-20T01:10:05.795Z,12.81
2018-09-20T01:16:00.768Z,14.79
2018-09-20T01:21:55.767Z,13.48
2018-09-20T01:27:46.727Z,13.2
2018-09-20T01:33:41.745Z,13.85
2018-09-20T01:39:36.707Z,13.36
2018-09-20T01:45:31.719Z,13.73
2018-09-20T01:51:26.779Z,13.7
2018-09-20T01:57:21.716Z,13.33
2018-09-20T02:03:16.736Z,13.53
2018-09-20T02:09:11.695Z,13.03
2018-09-20T02:15:06.730Z,13.13
2018-09-20T02:21:01.763Z,11.98
2018-09-20T02:26:56.715Z,13.06
2018-09-20T02:32:51.804Z,11.51
2018-09-20T02:38:46.737Z,11.9
2018-09-20T02:44:41.740Z,13.32
2018-09-20T02:50:36.785Z,13.41
2018-09-20T02:56:31.763Z,12.8
2018-09-20T03:02:26.846Z,12.41
2018-09-20T03:08:21.758Z,12.8
2018-09-20T03:14:16.859Z,11.87
2018-09-20T03:20:11.805Z,13.17
2018-09-20T03:26:06.825Z,12.8
2018-09-20T03:32:01.819Z,12.93
2018-09-20T03:37:56.815Z,12.52
2018-09-20T03:43:51.775Z,13.58
2018-09-20T03:49:46.860Z,12.89
2018-09-20T03:55:41.796Z,12.62
2018-09-20T04:01:36.811Z,12.53
2018-09-20T04:07:31.785Z,12.4
2018-09-20T04:13:26.799Z,11.67
2018-09-20T04:19:21.850Z,11.67
2018-09-20T04:25:16.857Z,10.62
2018-09-20T04:31:11.813Z,12.37
2018-09-20T04:37:06.834Z,12.3
2018-09-20T04:43:01.862Z,10.83
2018-09-20T04:48:56.833Z,11.07
2018-09-20T04:54:51.857Z,11.14
2018-09-20T05:00:46.825Z,10.72
2018-09-20T05:06:41.838Z,10.42
2018-09-20T05:12:36.820Z,11.39
2018-09-20T05:18:31.857Z,10.32
2018-09-20T05:24:26.829Z,10.77
2018-09-20T05:30:21.901Z,10.74
2018-09-20T05:36:16.896Z,12.43
2018-09-20T05:42:11.894Z,11.97
2018-09-20T05:48:06.856Z,11.86
2018-09-20T05:54:01.926Z,13.84
2018-09-20T05:59:56.849Z,15.13
2018-09-20T06:05:51.905Z,16.16
2018-09-20T06:11:46.856Z,15.55
2018-09-20T06:17:41.895Z,15.93
2018-09-20T06:23:36.878Z,15.7
2018-09-20T06:29:31.862Z,17.07
2018-09-20T06:35:26.893Z,16.89
2018-09-20T06:41:21.914Z,16.94
2018-09-20T06:47:16.918Z,15.87
2018-09-20T06:53:11.955Z,15.19
2018-09-20T06:59:06.938Z,17.11
2018-09-20T07:05:01.980Z,16.68
2018-09-20T07:10:56.919Z,18.03
2018-09-20T07:16:51.966Z,20.18
2018-09-20T07:22:46.911Z,17.19
2018-09-20T07:28:41.907Z,15.75
2018-09-20T07:34:36.916Z,14.44
2018-09-20T07:40:31.913Z,14.66
2018-09-20T07:46:26.915Z,11.38
2018-09-20T07:52:21.944Z,12.06
2018-09-20T07:58:16.940Z,13.11
2018-09-20T08:04:11.933Z,11.37
2018-09-20T08:10:06.959Z,10.33
2018-09-20T08:16:01.961Z,10.26
2018-09-20T08:21:56.941Z,10.38
2018-09-20T08:27:52.022Z,10.78
2018-09-20T08:33:46.976Z,12.71
2018-09-20T08:39:41.943Z,10
2018-09-20T08:45:36.959Z,10.44
2018-09-20T08:51:31.961Z,8.22
2018-09-20T08:57:26.997Z,8.64
2018-09-20T09:03:21.962Z,8.43
2018-09-20T09:09:17.011Z,7.76
2018-09-20T09:15:11.961Z,7.22
2018-09-20T09:21:07.023Z,6.37
2018-09-20T09:27:01.976Z,5.82
2018-09-20T09:32:57.002Z,6.54
2018-09-20T09:38:51.975Z,5.57
2018-09-20T09:44:46.988Z,5.74
2018-09-20T09:50:41.997Z,5.3
2018-09-20T09:56:37.015Z,5.35
2018-09-20T10:02:32.031Z,5.69
2018-09-20T10:08:27.058Z,5.31
2018-09-20T10:14:22.054Z,5.66
2018-09-20T10:20:17.063Z,5.76
2018-09-20T10:26:12.054Z,5.67
2018-09-20T10:32:07.090Z,6.02
2018-09-20T10:38:02.029Z,5.09
2018-09-20T10:43:57.042Z,4.81
2018-09-20T10:49:52.070Z,4.24
2018-09-20T10:55:47.049Z,4.49
2018-09-20T11:01:42.059Z,4.14
2018-09-20T11:07:37.043Z,4.39
2018-09-20T11:13:32.084Z,4.1
2018-09-20T11:19:27.051Z,3.94
2018-09-20T11:25:22.084Z,4.19
2018-09-20T11:31:17.080Z,3.86
2018-09-20T11:37:12.094Z,3.9
2018-09-20T11:43:07.074Z,4.11
2018-09-20T11:49:02.114Z,3.76
2018-09-20T11:54:57.085Z,3.43
2018-09-20T12:00:52.085Z,3.54
2018-09-20T12:06:47.162Z,4.21
2018-09-20T12:12:42.114Z,5.52
2018-09-20T12:18:37.122Z,4.36
2018-09-20T12:24:32.100Z,4.65
2018-09-20T12:30:27.116Z,4.43
2018-09-20T12:36:22.116Z,4.19
2018-09-20T12:42:17.179Z,4.45
2018-09-20T12:48:12.151Z,4.65
2018-09-20T12:54:07.165Z,3.96
2018-09-20T13:00:02.146Z,4.77
2018-09-20T13:05:57.136Z,4.23
2018-09-20T13:11:52.122Z,3.87
2018-09-20T13:17:47.148Z,3.74
2018-09-20T13:23:42.149Z,3.82
2018-09-20T13:29:37.146Z,3.98
2018-09-20T13:35:32.133Z,3.84
2018-09-20T13:41:27.158Z,3.88
2018-09-20T13:47:22.165Z,3.88
2018-09-20T13:53:17.177Z,4.12
2018-09-20T13:59:12.172Z,3.83
2018-09-20T14:05:07.219Z,4.58
2018-09-20T14:11:02.226Z,4.36
2018-09-20T14:16:57.169Z,3.73
2018-09-20T14:22:52.174Z,3.97
2018-09-20T14:28:47.189Z,4.2
2018-09-20T14:34:42.208Z,4.26
2018-09-20T14:40:37.168Z,4.46
2018-09-20T14:46:32.227Z,4.68
2018-09-20T14:52:27.211Z,4.52
2018-09-20T14:58:22.221Z,4.57
2018-09-20T15:04:17.244Z,4.33
2018-09-20T15:10:12.215Z,4.37
2018-09-20T15:16:07.223Z,4.53
2018-09-20T15:22:02.231Z,4.37
2018-09-20T15:27:57.201Z,4.47
2018-09-20T15:33:52.224Z,4.51
2018-09-20T15:39:47.231Z,4.85
2018-09-20T15:45:42.253Z,5.75
2018-09-20T15:51:37.244Z,4.24
2018-09-20T15:57:32.258Z,4.19
2018-09-20T16:03:27.246Z,5.05
2018-09-20T16:09:22.256Z,4.98
2018-09-20T16:15:17.263Z,4.4
2018-09-20T16:21:12.259Z,5.07
2018-09-20T16:27:07.245Z,5.19
2018-09-20T16:33:02.250Z,4.82
2018-09-20T16:38:57.257Z,5.27
2018-09-20T16:44:52.282Z,5.48
2018-09-20T16:50:47.299Z,5.27
2018-09-20T16:56:42.336Z,5.93
2018-09-20T17:02:37.268Z,5.47
2018-09-20T17:08:32.294Z,5.34
2018-09-20T17:14:27.333Z,5.82
2018-09-20T17:20:22.299Z,5.79
2018-09-20T17:26:17.302Z,5.97
2018-09-20T17:32:12.298Z,6.7
2018-09-20T17:38:07.305Z,7.12
2018-09-20T17:44:02.295Z,6.07
2018-09-20T17:49:58.001Z,6.44
2018-09-20T17:55:52.302Z,5.9
2018-09-20T18:01:47.332Z,6.35
2018-09-20T18:07:42.341Z,5.23
2018-09-20T18:13:37.315Z,4.81
2018-09-20T18:19:32.358Z,4.77
2018-09-20T18:25:27.380Z,4.61
2018-09-20T18:31:22.325Z,5.01
2018-09-20T18:37:17.397Z,5.23
2018-09-20T18:43:12.334Z,5.14
2018-09-20T18:49:07.388Z,5.74
2018-09-20T18:55:02.379Z,5.24
2018-09-20T19:00:57.388Z,5.73
2018-09-20T19:06:52.412Z,5.51
2018-09-20T19:12:47.405Z,6.1
2018-09-20T19:18:42.366Z,6.38
2018-09-20T19:24:37.358Z,5.66
2018-09-20T19:30:32.366Z,6.52
2018-09-20T19:36:27.377Z,6.3
2018-09-20T19:42:22.378Z,6.47
2018-09-20T19:48:17.387Z,5.93
2018-09-20T19:54:12.427Z,5.99
2018-09-20T20:00:07.445Z,6.12
2018-09-20T20:06:02.418Z,6.71
2018-09-20T20:11:57.393Z,7.13
2018-09-20T20:23:47.418Z,7.04
2018-09-20T20:23:47.439Z,7.18
2018-09-20T20:29:42.403Z,7.4
2018-09-20T20:35:37.401Z,7.14
2018-09-20T20:41:32.415Z,8.05
2018-09-20T20:47:27.415Z,6.74
2018-09-20T20:53:22.481Z,7.93
2018-09-20T21:05:12.436Z,7.55
2018-09-20T21:05:12.461Z,8.3
2018-09-20T21:11:07.443Z,7.86
2018-09-20T21:17:02.483Z,8.23
2018-09-20T21:22:57.459Z,8.8
2018-09-20T21:28:52.452Z,9.16
2018-09-20T21:34:47.502Z,7.83
2018-09-20T21:40:42.471Z,8.41
2018-09-20T21:46:37.459Z,7.52
2018-09-20T22:01:35.636Z,8.28
2018-09-20T22:07:30.599Z,7.96
2018-09-20T22:13:25.592Z,7.73
2018-09-20T22:19:20.614Z,7.13
2018-09-20T22:25:15.605Z,7.91
2018-09-20T22:31:10.631Z,7.59
2018-09-20T22:37:05.633Z,7.95
2018-09-20T22:43:00.609Z,7.97
2018-09-20T22:48:55.627Z,8.26
2018-09-20T22:54:50.659Z,8.2
2018-09-20T23:00:45.613Z,7.9
2018-09-20T23:06:40.650Z,8.54
2018-09-20T23:12:35.643Z,8.77
2018-09-20T23:18:30.676Z,8.4
2018-09-20T23:24:25.653Z,7.91
2018-09-20T23:30:20.680Z,8.29
2018-09-20T23:36:15.635Z,7.72
2018-09-20T23:42:10.711Z,7.83
2018-09-20T23:48:05.672Z,8.29
2018-09-20T23:54:00.661Z,8.4
2018-09-20T23:59:55.668Z,7.83
